Terminal Aerodrome Forecast
Issued by NWS Grand Forks, ND

Home | Current Version | Previous Version | Graphics & Text | Print | Product List | Glossary On
Versions: 1 2 3 4 5 6 7 8 9 10 11 12 13 14 15 16 17 18 19 20 21 22
000
FTUS43 KFGF 272100 AAB
TAFFAR
TAF AMD
KFAR 272120Z 2721/2818 16017G26KT P6SM OVC005
     FM272300 16015KT P6SM OVC007
     FM280400 15010KT 5SM BR OVC004=

USA.gov is the U.S. government's official web portal to all federal, state and local government web resources and services.